Ononge Airport


Codes: ONB/ONB
Name: Ononge Airport
City: Onange Mission
Country: Papua New Guinea
Elevation: 5800 ft.

Photos at Ononge Airport


   Photos courtesy of SpottingLog. You can add your own sightings and photos by signing up for a free trial today.



No photos found.

Weather at Ononge Airport


Time (UTC)DescriptionTempratureWindCloud coverageVisibilityPressureHumidity
21-Feb-2024 03:00Light Rain19°C4 mph, SW100%1049m1012hPa96%
21-Feb-2024 06:00Moderate Rain18°C4 mph, W100%335m1012hPa97%
21-Feb-2024 09:00Moderate Rain17°C2 mph, NW100%10000m1014hPa97%
21-Feb-2024 12:00Light Rain16°C2 mph, NW100%5256m1017hPa98%
21-Feb-2024 15:00Light Rain16°C2 mph, NW100%8579m1015hPa97%
21-Feb-2024 18:00Light Rain16°C2 mph, NW100%8779m1014hPa97%
21-Feb-2024 21:00Light Rain16°C2 mph, NW100%4672m1016hPa96%
22-Feb-2024 00:00Light Rain18°C2 mph, W100%10000m1017hPa89%
22-Feb-2024 03:00Light Rain17°C2 mph, NW100%10000m1015hPa94%
22-Feb-2024 06:00Light Rain16°C2 mph, NW100%10000m1014hPa97%
22-Feb-2024 09:00Moderate Rain16°C2 mph, N100%4247m1016hPa97%
22-Feb-2024 12:00Moderate Rain16°C2 mph, N100%10000m1017hPa95%
22-Feb-2024 15:00Light Rain16°C2 mph, N100%10000m1015hPa91%
22-Feb-2024 18:00Light Rain16°C4 mph, NE100%10000m1014hPa89%
22-Feb-2024 21:00Light Rain16°C2 mph, N100%10000m1016hPa86%
23-Feb-2024 00:00Overcast Clouds19°C2 mph, W100%10000m1016hPa75%
23-Feb-2024 03:00Overcast Clouds21°C4 mph, SW100%10000m1013hPa71%
23-Feb-2024 06:00Light Rain19°C4 mph, SW100%10000m1012hPa86%
23-Feb-2024 09:00Light Rain17°C2 mph, NW100%1527m1014hPa98%
23-Feb-2024 12:00Light Rain17°C2 mph, N100%9331m1016hPa94%
23-Feb-2024 15:00Light Rain16°C2 mph, N100%10000m1014hPa94%
23-Feb-2024 18:00Overcast Clouds15°C4 mph, NE100%10000m1013hPa93%
23-Feb-2024 21:00Overcast Clouds16°C2 mph, NE100%10000m1014hPa90%
24-Feb-2024 00:00Overcast Clouds21°C4 mph, SW100%10000m1014hPa71%
24-Feb-2024 03:00Light Rain20°C4 mph, SW100%6638m1012hPa84%
24-Feb-2024 06:00Moderate Rain19°C2 mph, SW100%2165m1010hPa94%
24-Feb-2024 09:00Heavy Intensity Rain17°C2 mph, SW100%142m1012hPa99%
24-Feb-2024 12:00Moderate Rain16°C2 mph, NE100%1630m1015hPa97%
24-Feb-2024 15:00Moderate Rain16°C2 mph, N100%10000m1013hPa95%
24-Feb-2024 18:00Moderate Rain16°C2 mph, N100%10000m1013hPa95%
24-Feb-2024 21:00Light Rain16°C4 mph, NE100%10000m1014hPa93%
25-Feb-2024 00:00Light Rain17°C2 mph, N100%10000m1015hPa92%
25-Feb-2024 03:00Light Rain18°C2 mph, NW100%10000m1012hPa86%
25-Feb-2024 06:00Light Rain18°C2 mph, NW100%10000m1011hPa90%
25-Feb-2024 09:00Light Rain17°C2 mph, NE100%10000m1013hPa93%
25-Feb-2024 12:00Light Rain17°C2 mph, NE100%10000m1014hPa90%
25-Feb-2024 15:00Overcast Clouds16°C2 mph, N100%10000m1013hPa91%
25-Feb-2024 18:00Overcast Clouds16°C2 mph, N99%10000m1012hPa92%
25-Feb-2024 21:00Overcast Clouds17°C2 mph, NE100%10000m1014hPa90%
26-Feb-2024 00:00Overcast Clouds20°C2 mph, SW100%10000m1014hPa75%